• Join FlightAware (Why Join?)
  • Login
  • US Flag 
09:49AM EDT


 

Airport Tracker/Info


-or-


 

Live Flight TrackerFlight Track Log ✈ SWA3833 ✈ 04-Jan-2014 ✈ KBUF - KBWI

Flight Track Log - Related Links

Times and Time Zones

All times are in EST time to prevent confusion due to time zone crossing. See the SWA3833 flight status page for this flight to view local times or setup timezone preferences in your user account.

Time Position Orientation Groundspeed Altitude Reporting Facility
EST Latitude Longitude Course Direction KTS MPH feet Rate Location/Type
06:35AM 42.9333 -78.7500 180° South 154 177 1,700  Level Buffalo TRACON
06:35AM 42.9167 -78.7500 180° South 157 181 2,300 2,760 Climbing Buffalo TRACON
06:36AM 42.8664 -78.7636 191° South 220 253 5,200 2,640 Climbing Cleveland Center
06:37AM 42.8003 -78.7525 173° South 245 282 8,100 2,760 Climbing Cleveland Center
06:38AM 42.7239 -78.7372 172° South 273 314 10,800 2,460 Climbing Cleveland Center
06:39AM 42.6356 -78.7211 172° South 318 366 13,100 2,400 Climbing Cleveland Center
06:40AM 42.5406 -78.7025 172° South 341 392 15,700 2,220 Climbing Cleveland Center
06:41AM 42.4428 -78.6842 172° South 356 410 17,700 2,100 Climbing Cleveland Center
06:42AM 42.3403 -78.6650 172° South 368 423 20,000 1,920 Climbing Cleveland Center
06:43AM 42.2361 -78.6439 171° South 376 433 21,600 1,440 Climbing Cleveland Center
06:44AM 42.1381 -78.5408 142° Southeast 415 478 23,000 660 Climbing Cleveland Center
06:45AM 42.0525 -78.4333 137° Southeast 420 483 23,000  Level Cleveland Center
06:46AM 41.9656 -78.3244 137° Southeast 424 488 23,000  Level Cleveland Center
06:47AM 41.8783 -78.2142 137° Southeast 428 493 23,000  Level Cleveland Center
06:48AM 41.7906 -78.1042 137° Southeast 430 495 23,000  Level Cleveland Center
06:49AM 41.7014 -77.9925 137° Southeast 434 499 23,000  Level Cleveland Center
06:50AM 41.6122 -77.8822 137° Southeast 436 502 23,000  Level Cleveland Center
06:51AM 41.5542 -77.8125 138° Southeast 440 506 23,000  Level New York Center
06:52AM 41.4667 -77.7064 138° Southeast 440 506 23,000  Level New York Center
06:53AM 41.3597 -77.6456 157° South 420 483 23,000 -360 Level New York Center
06:54AM 41.2503 -77.5931 160° South 420 483 22,300 -900 Descending New York Center
06:55AM 41.1425 -77.5464 162° South 420 483 21,300 -960 Descending New York Center
06:56AM 41.0350 -77.4969 161° South 415 478 20,400 -960 Descending New York Center
06:57AM 40.9272 -77.4481 161° South 415 478 19,400 -1,020 Descending New York Center
06:58AM 40.8194 -77.3992 161° South 415 478 18,400 -720 Descending New York Center
06:59AM 40.7119 -77.3475 160° South 415 478 18,000 -240 Descending New York Center
07:00AM 40.6042 -77.3017 162° South 415 478 18,000  Level New York Center
07:01AM 40.4903 -77.2500 161° South 410 472 18,000  Level New York Center
07:02AM 40.3947 -77.2056 160° South 410 472 18,000  Level New York Center
07:03AM 40.2806 -77.1542 161° South 399 459 18,000  Level New York Center
07:04AM 40.1872 -77.1103 160° South 394 453 18,000  Level New York Center
07:05AM 40.0731 -77.0592 161° South 399 459 18,000 -1,440 Level New York Center
07:07AM 39.8500 -76.9667 162° South 374 430 13,500 -2,100 Descending Potomac TRACON
07:08AM 39.7833 -76.9333 159° South 364 419 11,900 -1,740 Descending Potomac TRACON
07:09AM 39.6833 -76.8333 142° Southeast 344 396 10,100 -1,320 Descending Potomac TRACON
07:10AM 39.6333 -76.7667 134° Southeast 313 360 9,300 -1,200 Descending Potomac TRACON
07:11AM 39.5833 -76.7000 134° Southeast 289 333 8,000 -1,380 Descending Potomac TRACON
07:12AM 39.5333 -76.6333 134° Southeast 286 329 6,700 -1,440 Descending Potomac TRACON
07:13AM 39.4833 -76.5500 128° Southeast 272 313 5,300 -1,380 Descending Potomac TRACON
07:14AM 39.4333 -76.4833 134° Southeast 264 304 4,100 -720 Descending Potomac TRACON
07:15AM 39.3667 -76.4667 169° South 228 262 4,000 -120 Descending Potomac TRACON
07:16AM 39.3000 -76.4500 169° South 241 277 3,900 -600 Descending Potomac TRACON
07:17AM 39.2500 -76.4500 180° South 231 266 2,900 -600 Descending Potomac TRACON
07:18AM 39.2000 -76.4500 180° South 174 200 2,800 -420 Descending Potomac TRACON
07:19AM 39.1833 -76.4833 237° Southwest 158 182 2,200 -480 Descending Potomac TRACON
07:20AM 39.1667 -76.5500 252° West 163 188 2,000 -600 Descending Potomac TRACON
07:21AM 39.1667 -76.6000 270° West 145 167 1,100 -900 Descending Potomac TRACON